Terminal Aerodrome Forecast
Issued by NWS

Home | Current Version | Previous Version | Graphics & Text | Print | Product List | Glossary On
Versions: 1 2 3 4 5 6 7 8 9 10 11 12 13 14 15 16 17 18 19 20 21
000
FTUS43 KOAX 031749 CCA
TAFCDR
TAF COR
KCDR 031749Z 0318/0418 01008KT P6SM SCT028 BKN060
      TEMPO 0318/0320 2SM -SHSN OVC035
     FM040100 34007KT P6SM SCT060
     FM040600 28006KT P6SM SKC=

USA.gov is the U.S. government's official web portal to all federal, state and local government web resources and services.